Time;durP1;ratioP1;P1;durP2;ratioP2;P2;SDS_P1;SDS_P2;PMS_P1;PMS_P2;Temp;Humidity;BMP_temperature;BMP_pressure;BME280_temperature;BME280_humidity;BME280_pressure;Samples;Min_cycle;Max_cycle;Signal;HPM_P1;HPM_P2
2021/12/14 00:01:31;;;;;;;0.40;0.40;;;1.40;99.90;;;;;;5113114;28;20376;-70
2021/12/14 00:04:01;;;;;;;0.40;0.30;;;1.50;99.90;;;;;;5113344;28;20373;-70
2021/12/14 00:06:26;;;;;;;0.90;0.90;;;1.50;99.90;;;;;;5112826;28;20376;-69
2021/12/14 00:09:00;;;;;;;0.40;0.20;;;1.50;99.90;;;;;;5113019;28;20385;-70
2021/12/14 00:15:02;;;;;;;0.50;0.50;;;1.60;99.90;;;;;;5113107;28;20464;-69
2021/12/14 00:17:20;;;;;;;0.40;0.20;;;1.60;99.90;;;;;;5111938;28;20483;-70
2021/12/14 00:19:46;;;;;;;0.40;0.30;;;1.70;99.90;;;;;;5113094;28;20384;-69
2021/12/14 00:24:55;;;;;;;0.40;0.20;;;1.60;99.90;;;;;;5112639;28;20395;-69
2021/12/14 00:27:23;;;;;;;0.40;0.40;;;1.60;99.90;;;;;;5112511;28;20404;-70
2021/12/14 00:29:53;;;;;;;0.40;0.20;;;1.50;99.90;;;;;;5112617;28;20850;-69
2021/12/14 00:32:23;;;;;;;0.40;0.30;;;1.60;99.90;;;;;;5112371;28;20380;-72
2021/12/14 00:34:52;;;;;;;0.50;0.50;;;1.50;99.90;;;;;;5092462;28;20386;-70
2021/12/14 00:37:39;;;;;;;0.40;0.40;;;1.40;99.90;;;;;;5092201;28;20780;-69
2021/12/14 00:40:31;;;;;;;1.30;0.60;;;1.40;99.90;;;;;;5092474;28;20457;-69
2021/12/14 00:42:58;;;;;;;0.40;0.30;;;1.50;99.90;;;;;;5091756;28;20716;-69
2021/12/14 00:45:29;;;;;;;0.40;0.20;;;1.60;99.90;;;;;;5092214;28;20886;-70
2021/12/14 00:47:57;;;;;;;0.40;0.20;;;1.60;99.90;;;;;;5092188;28;20518;-69
2021/12/14 00:50:26;;;;;;;0.40;0.30;;;1.50;99.90;;;;;;5091833;28;20412;-69
2021/12/14 00:52:52;;;;;;;0.40;0.20;;;1.60;99.90;;;;;;5091549;28;20613;-70
2021/12/14 00:55:25;;;;;;;0.40;0.20;;;1.50;99.90;;;;;;5092011;28;20463;-69
2021/12/14 00:57:52;;;;;;;0.40;0.20;;;1.50;99.90;;;;;;5091492;28;20915;-70
2021/12/14 01:00:21;;;;;;;0.40;0.30;;;1.50;99.90;;;;;;5092021;28;20382;-69
2021/12/14 01:02:47;;;;;;;0.40;0.30;;;1.40;99.90;;;;;;5091716;28;20386;-70
2021/12/14 01:05:21;;;;;;;0.40;0.30;;;1.50;99.90;;;;;;5073752;28;20386;-70
2021/12/14 01:07:48;;;;;;;0.40;0.20;;;1.40;99.90;;;;;;5091385;28;20381;-70
2021/12/14 01:10:45;;;;;;;0.40;0.28;;;1.40;99.90;;;;;;5091174;28;20402;-70
2021/12/14 01:13:11;;;;;;;0.40;0.30;;;1.70;99.90;;;;;;5085525;28;20880;-69
2021/12/14 01:18:33;;;;;;;0.40;0.25;;;1.50;99.90;;;;;;5091716;28;20856;-70
2021/12/14 01:21:14;;;;;;;0.80;0.80;;;1.40;99.90;;;;;;5072803;28;20422;-70
2021/12/14 01:23:40;;;;;;;0.40;0.22;;;1.40;99.90;;;;;;5091779;28;20384;-70
2021/12/14 01:26:19;;;;;;;0.40;0.20;;;1.40;99.90;;;;;;5090842;28;20496;-69
2021/12/14 01:28:46;;;;;;;0.40;0.20;;;1.40;99.90;;;;;;5091587;28;20377;-70
2021/12/14 01:31:21;;;;;;;0.40;0.20;;;1.30;99.90;;;;;;5090673;28;20518;-70
2021/12/14 01:33:51;;;;;;;0.40;0.30;;;1.30;99.90;;;;;;5091550;28;20477;-69
2021/12/14 01:36:42;;;;;;;0.40;0.20;;;1.20;99.90;;;;;;5090788;28;20372;-70
2021/12/14 01:39:44;;;;;;;0.60;0.60;;;1.20;99.90;;;;;;5090811;28;20374;-70
2021/12/14 01:42:11;;;;;;;0.40;0.20;;;1.20;99.90;;;;;;5090004;28;20389;-70
2021/12/14 01:44:45;;;;;;;0.40;0.20;;;1.30;99.90;;;;;;5091091;28;20876;-70
2021/12/14 01:47:18;;;;;;;0.40;0.20;;;1.30;99.90;;;;;;5090686;28;20459;-69
2021/12/14 01:49:46;;;;;;;0.40;0.30;;;1.20;99.90;;;;;;5091098;28;20453;-69
2021/12/14 01:52:19;;;;;;;0.50;0.40;;;1.20;99.90;;;;;;5090500;28;20396;-70
2021/12/14 01:54:48;;;;;;;0.40;0.20;;;1.20;99.90;;;;;;5090881;28;20495;-70
2021/12/14 01:57:18;;;;;;;0.40;0.20;;;1.20;99.90;;;;;;5090670;28;20417;-71
2021/12/14 01:59:47;;;;;;;0.40;0.20;;;1.20;99.90;;;;;;5090743;28;20367;-70
2021/12/14 02:02:31;;;;;;;0.40;0.20;;;1.20;99.90;;;;;;5091018;28;20392;-69
2021/12/14 02:05:00;;;;;;;0.40;0.20;;;1.20;99.90;;;;;;5090989;28;20381;-70
2021/12/14 02:07:27;;;;;;;0.40;0.20;;;1.20;99.90;;;;;;5090339;28;20423;-70
2021/12/14 02:10:05;;;;;;;0.40;0.20;;;1.20;99.90;;;;;;5090675;28;20420;-70
2021/12/14 02:12:32;;;;;;;0.40;0.20;;;1.20;99.90;;;;;;5072223;28;20853;-69
2021/12/14 02:15:10;;;;;;;0.40;0.20;;;1.30;99.90;;;;;;5090685;28;20461;-70
2021/12/14 02:17:39;;;;;;;0.40;0.30;;;1.10;99.90;;;;;;5090142;28;20381;-70
2021/12/14 02:20:07;;;;;;;0.40;0.30;;;1.20;99.90;;;;;;5090611;28;20393;-70
2021/12/14 02:22:32;;;;;;;0.40;0.20;;;1.10;99.90;;;;;;5092918;28;20486;-70
2021/12/14 02:24:58;;;;;;;0.70;0.60;;;1.20;99.90;;;;;;5097360;28;20435;-69
2021/12/14 02:27:32;;;;;;;0.40;0.20;;;1.20;99.90;;;;;;5097551;28;20847;-70
2021/12/14 02:30:05;;;;;;;0.47;0.28;;;1.20;99.90;;;;;;5097100;28;20429;-70
2021/12/14 02:32:31;;;;;;;0.40;0.30;;;1.20;99.90;;;;;;5098799;28;20401;-69
2021/12/14 02:35:00;;;;;;;0.40;0.30;;;1.20;99.90;;;;;;5117242;28;20639;-70
2021/12/14 02:37:45;;;;;;;0.40;0.20;;;1.20;99.90;;;;;;5117657;28;20372;-69
2021/12/14 02:40:20;;;;;;;0.40;0.30;;;1.30;99.90;;;;;;5118053;28;20387;-69
2021/12/14 02:42:49;;;;;;;0.60;0.50;;;1.30;99.90;;;;;;5117112;28;20416;-70
2021/12/14 02:45:16;;;;;;;0.40;0.20;;;1.30;99.90;;;;;;5117983;28;20493;-69
2021/12/14 02:47:42;;;;;;;0.40;0.20;;;1.30;99.90;;;;;;5117655;28;20404;-69
2021/12/14 02:50:09;;;;;;;0.40;0.20;;;1.30;99.90;;;;;;5117058;28;20451;-68
2021/12/14 02:52:37;;;;;;;0.50;0.50;;;1.30;99.90;;;;;;5117615;28;20741;-68
2021/12/14 02:55:22;;;;;;;0.40;0.30;;;1.30;99.90;;;;;;5116755;28;20402;-70
2021/12/14 02:57:51;;;;;;;0.40;0.30;;;1.40;99.90;;;;;;5117598;28;20380;-69
2021/12/14 03:00:30;;;;;;;0.40;0.30;;;1.40;99.90;;;;;;5117144;28;20383;-68
2021/12/14 03:02:56;;;;;;;0.40;0.20;;;1.40;99.90;;;;;;5117076;28;20443;-71
2021/12/14 03:05:26;;;;;;;0.40;0.20;;;1.30;99.90;;;;;;5117714;28;20399;-69
2021/12/14 03:08:08;;;;;;;0.40;0.20;;;1.40;99.90;;;;;;5117442;28;20452;-69
2021/12/14 03:10:52;;;;;;;0.40;0.20;;;1.30;99.90;;;;;;5117638;28;20546;-69
2021/12/14 03:13:19;;;;;;;0.40;0.20;;;1.30;99.90;;;;;;5116865;28;20440;-69
2021/12/14 03:15:56;;;;;;;0.40;0.38;;;1.30;99.90;;;;;;5117112;28;20383;-69
2021/12/14 03:18:32;;;;;;;0.40;0.30;;;1.30;99.90;;;;;;5098570;28;20877;-69
2021/12/14 03:21:01;;;;;;;0.40;0.20;;;1.40;99.90;;;;;;5117518;28;20394;-69
2021/12/14 03:23:34;;;;;;;0.40;0.30;;;1.40;99.90;;;;;;5116808;28;20849;-69
2021/12/14 03:26:03;;;;;;;0.40;0.20;;;1.40;99.90;;;;;;5116990;28;20445;-69
2021/12/14 03:28:30;;;;;;;0.40;0.20;;;1.50;99.90;;;;;;5116686;28;20401;-69
2021/12/14 03:30:58;;;;;;;0.40;0.30;;;1.50;99.90;;;;;;5117363;28;20448;-70
2021/12/14 03:33:33;;;;;;;0.40;0.20;;;1.50;99.90;;;;;;5116156;28;20416;-69
2021/12/14 03:36:06;;;;;;;0.40;0.20;;;1.60;99.90;;;;;;5113906;28;20500;-69
2021/12/14 03:38:50;;;;;;;0.40;0.20;;;1.60;99.90;;;;;;5113536;28;20400;-69
2021/12/14 03:41:24;;;;;;;0.40;0.20;;;1.70;99.90;;;;;;5113970;28;20806;-69
2021/12/14 03:43:58;;;;;;;0.40;0.30;;;1.70;99.90;;;;;;5113697;28;20420;-69
2021/12/14 03:46:37;;;;;;;0.40;0.20;;;1.80;99.90;;;;;;5113305;28;20388;-71
2021/12/14 03:49:05;;;;;;;0.40;0.20;;;1.80;99.90;;;;;;5114040;28;20395;-69
2021/12/14 03:51:31;;;;;;;0.70;0.70;;;1.70;99.90;;;;;;5113169;28;20454;-70
2021/12/14 03:53:57;;;;;;;0.40;0.20;;;1.70;99.90;;;;;;5113845;28;20379;-69
2021/12/14 03:56:24;;;;;;;0.70;0.70;;;1.80;99.90;;;;;;5113605;28;20429;-69
2021/12/14 03:58:52;;;;;;;0.40;0.30;;;1.60;99.90;;;;;;5113411;28;20376;-69
2021/12/14 04:01:26;;;;;;;0.80;0.80;;;1.60;99.90;;;;;;5113653;28;20396;-69
2021/12/14 04:03:57;;;;;;;0.70;0.70;;;1.60;99.90;;;;;;5113059;28;20459;-69
2021/12/14 04:06:23;;;;;;;0.40;0.20;;;1.70;99.90;;;;;;5113244;28;20846;-70
2021/12/14 04:08:50;;;;;;;0.40;0.30;;;1.70;99.90;;;;;;5112881;28;20726;-69
2021/12/14 04:11:16;;;;;;;0.40;0.40;;;1.60;99.90;;;;;;5113705;28;20411;-69
2021/12/14 04:13:45;;;;;;;0.40;0.30;;;1.60;99.90;;;;;;5113348;28;20381;-69
2021/12/14 04:16:16;;;;;;;0.40;0.30;;;1.60;99.90;;;;;;5113552;28;20379;-69
2021/12/14 04:18:42;;;;;;;0.40;0.20;;;1.70;99.90;;;;;;5113264;28;20662;-69
2021/12/14 04:21:08;;;;;;;0.40;0.20;;;1.70;99.90;;;;;;5112468;28;20623;-69
2021/12/14 04:23:38;;;;;;;0.40;0.20;;;1.70;99.90;;;;;;5113224;28;20434;-69
2021/12/14 04:26:06;;;;;;;2.70;1.00;;;1.70;99.90;;;;;;5112278;28;20411;-69
2021/12/14 04:28:43;;;;;;;1.90;1.20;;;1.90;99.90;;;;;;5113124;28;20429;-69
2021/12/14 04:31:09;;;;;;;0.40;0.20;;;1.90;99.90;;;;;;5112549;28;20440;-69
2021/12/14 04:33:37;;;;;;;0.40;0.20;;;1.80;99.90;;;;;;5102878;28;20443;-69
2021/12/14 04:36:10;;;;;;;0.70;0.70;;;2.00;99.90;;;;;;5092485;28;20374;-69
2021/12/14 04:38:45;;;;;;;0.40;0.20;;;1.90;99.90;;;;;;5092527;28;20871;-69
2021/12/14 04:52:11;;;;;;;0.40;0.20;;;2.00;99.90;;;;;;5092256;28;20416;-69
2021/12/14 04:54:42;;;;;;;0.80;0.80;;;2.10;99.90;;;;;;5092608;28;20418;-69
2021/12/14 04:57:37;;;;;;;0.40;0.30;;;2.00;99.90;;;;;;5092248;28;20812;-69
2021/12/14 05:00:24;;;;;;;0.40;0.20;;;2.10;99.90;;;;;;5090301;28;20402;-69
2021/12/14 05:02:51;;;;;;;0.70;0.70;;;2.20;99.90;;;;;;5093824;28;20402;-69
2021/12/14 05:05:22;;;;;;;0.40;0.20;;;2.10;99.90;;;;;;5102513;28;20414;-70
2021/12/14 05:10:53;;;;;;;0.40;0.30;;;2.20;99.90;;;;;;5099927;28;20410;-69
2021/12/14 05:13:28;;;;;;;0.40;0.20;;;2.20;99.90;;;;;;5094664;28;20907;-69
2021/12/14 05:15:54;;;;;;;0.40;0.20;;;2.10;99.90;;;;;;5105403;28;20552;-69
2021/12/14 05:18:24;;;;;;;0.40;0.30;;;2.00;99.90;;;;;;5100740;28;20476;-69
2021/12/14 05:20:50;;;;;;;0.50;0.50;;;2.10;99.90;;;;;;5100820;28;20450;-69
2021/12/14 05:23:26;;;;;;;0.40;0.20;;;2.10;99.90;;;;;;5097589;28;20906;-69
2021/12/14 05:25:52;;;;;;;0.60;0.50;;;2.10;99.90;;;;;;5076445;28;21069;-69
2021/12/14 05:28:20;;;;;;;0.40;0.20;;;2.00;99.90;;;;;;5098392;28;20408;-69
2021/12/14 05:30:49;;;;;;;0.40;0.30;;;2.00;99.90;;;;;;5075090;28;20795;-69
2021/12/14 05:33:21;;;;;;;0.40;0.30;;;2.00;99.90;;;;;;5104452;28;20392;-69
2021/12/14 05:35:50;;;;;;;0.40;0.20;;;1.90;99.90;;;;;;5102342;28;20430;-69
2021/12/14 05:38:21;;;;;;;0.40;0.30;;;2.10;99.90;;;;;;5100103;28;20794;-69
2021/12/14 05:43:20;;;;;;;0.50;0.50;;;2.10;99.90;;;;;;5103455;28;20395;-69
2021/12/14 05:45:49;;;;;;;0.40;0.20;;;2.20;99.90;;;;;;5108564;27;20435;-71
2021/12/14 05:48:24;;;;;;;0.40;0.20;;;2.10;99.90;;;;;;5102017;27;20414;-69
2021/12/14 05:50:55;;;;;;;0.80;0.70;;;2.20;99.90;;;;;;5131166;27;20903;-71
2021/12/14 05:53:50;;;;;;;0.40;0.30;;;2.20;99.90;;;;;;5131855;27;20378;-69
2021/12/14 05:56:19;;;;;;;0.70;0.70;;;2.20;99.90;;;;;;5088188;27;20402;-70
2021/12/14 05:58:47;;;;;;;0.40;0.30;;;2.30;99.90;;;;;;5131567;27;20370;-69
2021/12/14 06:01:17;;;;;;;0.40;0.20;;;2.20;99.90;;;;;;5130989;27;20375;-69
2021/12/14 06:03:59;;;;;;;0.40;0.40;;;2.20;99.90;;;;;;5105450;27;21792;-70
2021/12/14 06:06:30;;;;;;;0.40;0.20;;;2.10;99.90;;;;;;5110595;27;20836;-69
2021/12/14 06:09:27;;;;;;;1.80;0.90;;;2.10;99.90;;;;;;5114235;27;20384;-69
2021/12/14 06:11:57;;;;;;;0.50;0.40;;;2.10;99.90;;;;;;5115590;27;20749;-69
2021/12/14 06:14:26;;;;;;;1.10;0.70;;;2.20;99.90;;;;;;5109464;28;20394;-70
2021/12/14 06:16:56;;;;;;;0.40;0.20;;;2.10;99.90;;;;;;5118394;28;20390;-69
2021/12/14 06:19:25;;;;;;;0.40;0.20;;;2.10;99.90;;;;;;5115938;27;20390;-70
2021/12/14 06:21:57;;;;;;;0.40;0.20;;;2.10;99.90;;;;;;5130348;28;20860;-70
2021/12/14 06:24:25;;;;;;;0.40;0.30;;;2.10;99.90;;;;;;5118657;28;20489;-70
2021/12/14 06:26:53;;;;;;;0.40;0.20;;;2.10;99.90;;;;;;5112260;28;20410;-70
2021/12/14 06:29:49;;;;;;;0.40;0.20;;;2.10;99.90;;;;;;5130618;28;20375;-70
2021/12/14 06:32:19;;;;;;;0.40;0.20;;;2.30;99.90;;;;;;5102841;28;20393;-72
2021/12/14 06:34:52;;;;;;;0.40;0.20;;;2.40;99.90;;;;;;5111175;28;20447;-70
2021/12/14 06:40:09;;;;;;;0.40;0.30;;;2.70;99.90;;;;;;5130659;28;20408;-70
2021/12/14 06:42:41;;;;;;;0.40;0.30;;;2.60;99.90;;;;;;5121925;28;20393;-70
2021/12/14 06:45:19;;;;;;;0.40;0.20;;;2.60;99.90;;;;;;5110128;28;20390;-70
2021/12/14 06:47:48;;;;;;;0.40;0.20;;;2.70;99.90;;;;;;5109589;28;20862;-70
2021/12/14 06:50:26;;;;;;;0.40;0.30;;;2.80;99.90;;;;;;5119041;28;20447;-70
2021/12/14 06:53:22;;;;;;;0.70;0.50;;;2.80;99.90;;;;;;5130866;28;20379;-70
2021/12/14 06:55:53;;;;;;;0.40;0.20;;;2.80;99.90;;;;;;5128198;28;20452;-70
2021/12/14 06:58:25;;;;;;;0.70;0.70;;;2.70;99.90;;;;;;5131548;28;20386;-70
2021/12/14 07:01:04;;;;;;;0.40;0.20;;;2.80;99.90;;;;;;5130172;28;20860;-70
2021/12/14 07:03:50;;;;;;;0.75;0.68;;;2.70;99.90;;;;;;5108626;28;20421;-71
2021/12/14 07:06:25;;;;;;;0.40;0.30;;;2.70;99.90;;;;;;5101550;28;20369;-70
2021/12/14 07:08:52;;;;;;;1.40;0.80;;;2.80;99.90;;;;;;5110059;28;20376;-70
2021/12/14 07:11:22;;;;;;;0.40;0.20;;;2.90;99.90;;;;;;5114449;28;20399;-70
2021/12/14 07:13:50;;;;;;;0.80;0.70;;;2.90;99.90;;;;;;5113274;28;20465;-71
2021/12/14 07:16:31;;;;;;;0.40;0.20;;;2.90;99.90;;;;;;5105383;28;20398;-70
2021/12/14 07:19:00;;;;;;;0.40;0.30;;;2.80;99.90;;;;;;5109523;28;20443;-71
2021/12/14 07:21:37;;;;;;;0.40;0.20;;;2.90;99.90;;;;;;5114962;27;20418;-70
2021/12/14 07:24:28;;;;;;;0.40;0.30;;;2.70;99.90;;;;;;5112119;28;20398;-69
2021/12/14 07:27:16;;;;;;;0.40;0.30;;;2.60;99.90;;;;;;5112489;28;20945;-69
2021/12/14 07:29:42;;;;;;;0.93;0.82;;;2.70;99.90;;;;;;5114887;28;20384;-69
2021/12/14 07:32:08;;;;;;;0.40;0.25;;;2.80;99.90;;;;;;5113779;28;20786;-70
2021/12/14 07:34:34;;;;;;;0.80;0.80;;;2.80;99.90;;;;;;5076850;28;20390;-69
2021/12/14 07:36:59;;;;;;;1.40;1.10;;;2.90;99.90;;;;;;5092648;28;20492;-71
2021/12/14 07:39:25;;;;;;;0.45;0.43;;;2.70;99.90;;;;;;5093638;28;20468;-70
2021/12/14 07:41:54;;;;;;;0.70;0.70;;;2.80;99.90;;;;;;5094131;28;20446;-70
2021/12/14 07:44:21;;;;;;;0.40;0.30;;;2.80;99.90;;;;;;5103326;28;21381;-70
2021/12/14 07:46:57;;;;;;;0.40;0.20;;;2.90;99.90;;;;;;5104964;28;20405;-69
2021/12/14 07:49:32;;;;;;;1.30;0.70;;;2.80;99.90;;;;;;5112811;28;21319;-70
2021/12/14 07:52:09;;;;;;;0.40;0.20;;;2.90;99.90;;;;;;5113755;28;20739;-70
2021/12/14 07:54:35;;;;;;;0.40;0.22;;;2.90;99.90;;;;;;5096815;28;20402;-70
2021/12/14 07:57:04;;;;;;;0.40;0.20;;;3.10;99.90;;;;;;5096882;28;20484;-70
2021/12/14 07:59:52;;;;;;;0.40;0.40;;;2.90;99.90;;;;;;5092450;28;20447;-70
2021/12/14 08:02:18;;;;;;;0.60;0.50;;;2.90;99.90;;;;;;5091819;28;20440;-70
2021/12/14 08:04:58;;;;;;;0.60;0.60;;;3.00;99.90;;;;;;5092802;28;20414;-71
2021/12/14 08:07:31;;;;;;;0.40;0.20;;;2.90;99.90;;;;;;5091950;28;20435;-71
2021/12/14 08:10:14;;;;;;;0.40;0.20;;;2.90;99.90;;;;;;5093023;28;20487;-71
2021/12/14 08:12:42;;;;;;;0.50;0.50;;;3.00;99.90;;;;;;5092588;28;20386;-72
2021/12/14 08:15:18;;;;;;;0.40;0.20;;;3.00;99.90;;;;;;5092910;28;20382;-72
2021/12/14 08:17:46;;;;;;;0.40;0.40;;;3.00;99.90;;;;;;5092639;28;20429;-72
2021/12/14 08:20:20;;;;;;;0.40;0.20;;;2.90;99.90;;;;;;5092441;28;20379;-72
2021/12/14 08:22:47;;;;;;;0.40;0.30;;;3.00;99.90;;;;;;5093212;28;20405;-72
2021/12/14 08:25:15;;;;;;;0.60;0.60;;;2.90;99.90;;;;;;5092635;28;20416;-72
2021/12/14 08:27:41;;;;;;;0.60;0.50;;;2.90;99.90;;;;;;5092573;28;20386;-72
2021/12/14 08:30:14;;;;;;;0.80;0.80;;;2.90;99.90;;;;;;5092576;28;20943;-72
2021/12/14 08:32:42;;;;;;;0.40;0.30;;;2.80;99.90;;;;;;5095144;28;20848;-72
2021/12/14 08:35:13;;;;;;;0.40;0.20;;;2.90;99.90;;;;;;5113476;28;20790;-72
2021/12/14 08:37:43;;;;;;;0.40;0.30;;;3.00;99.90;;;;;;5112892;28;20372;-72
2021/12/14 08:40:46;;;;;;;0.40;0.30;;;3.10;99.90;;;;;;5113209;28;20384;-72
2021/12/14 08:43:23;;;;;;;0.40;0.30;;;3.10;99.90;;;;;;5108718;28;20385;-72
2021/12/14 08:46:18;;;;;;;0.40;0.20;;;3.20;99.90;;;;;;5112409;28;20384;-72
2021/12/14 08:48:55;;;;;;;1.08;1.08;;;3.10;99.90;;;;;;5108333;28;20507;-72
2021/12/14 08:51:40;;;;;;;0.40;0.30;;;3.00;99.90;;;;;;5112967;28;20495;-72
2021/12/14 08:54:11;;;;;;;0.40;0.20;;;3.20;99.90;;;;;;5112941;28;20920;-72
2021/12/14 08:56:51;;;;;;;0.40;0.30;;;3.10;99.90;;;;;;5112255;28;20397;-72
2021/12/14 08:59:17;;;;;;;0.40;0.30;;;3.30;99.90;;;;;;5113019;28;20412;-72
2021/12/14 09:01:44;;;;;;;0.40;0.30;;;3.20;99.90;;;;;;5112294;28;20908;-72
2021/12/14 09:04:18;;;;;;;0.40;0.20;;;3.30;99.90;;;;;;5094619;28;20392;-71
2021/12/14 09:06:46;;;;;;;0.40;0.30;;;3.40;99.90;;;;;;5093919;28;20862;-72
2021/12/14 09:09:14;;;;;;;0.40;0.30;;;3.40;99.90;;;;;;5112655;28;20463;-71
2021/12/14 09:11:44;;;;;;;0.40;0.22;;;3.40;99.90;;;;;;5112418;28;20403;-71
2021/12/14 09:14:14;;;;;;;0.40;0.30;;;3.60;99.90;;;;;;5112522;28;20422;-72
2021/12/14 09:16:42;;;;;;;0.50;0.35;;;3.40;99.90;;;;;;5112174;28;20376;-71
2021/12/14 09:19:11;;;;;;;0.40;0.30;;;3.40;99.90;;;;;;5111915;28;20787;-72
2021/12/14 09:21:40;;;;;;;0.40;0.20;;;3.30;99.90;;;;;;5112400;28;20381;-71
2021/12/14 09:24:12;;;;;;;0.40;0.30;;;3.40;99.90;;;;;;5093473;28;20396;-72
2021/12/14 09:26:44;;;;;;;0.40;0.20;;;3.50;99.90;;;;;;5112256;28;20404;-72
2021/12/14 09:29:14;;;;;;;2.00;0.70;;;3.40;99.90;;;;;;5110991;28;20441;-72
2021/12/14 09:31:43;;;;;;;0.40;0.30;;;3.50;99.90;;;;;;5111007;28;20491;-72
2021/12/14 09:34:12;;;;;;;0.40;0.30;;;3.70;99.90;;;;;;5095658;28;20398;-72
2021/12/14 09:36:40;;;;;;;0.40;0.20;;;3.70;99.90;;;;;;5091616;28;20520;-71
2021/12/14 09:39:14;;;;;;;0.40;0.30;;;3.80;99.90;;;;;;5091080;28;20448;-72
2021/12/14 09:41:42;;;;;;;0.40;0.30;;;3.90;99.90;;;;;;5091747;28;20377;-71
2021/12/14 09:44:12;;;;;;;0.80;0.80;;;3.90;99.90;;;;;;5091301;28;20383;-72
2021/12/14 09:46:38;;;;;;;0.40;0.30;;;4.10;99.90;;;;;;5091505;28;20423;-72
2021/12/14 09:49:07;;;;;;;0.70;0.70;;;4.40;99.90;;;;;;5091018;28;20479;-72
2021/12/14 09:51:46;;;;;;;0.40;0.30;;;4.60;99.90;;;;;;5091129;28;20863;-72
2021/12/14 09:54:17;;;;;;;0.40;0.30;;;4.80;99.90;;;;;;5072710;28;20451;-71
2021/12/14 09:56:47;;;;;;;0.50;0.50;;;5.00;99.90;;;;;;5091372;28;20391;-72
2021/12/14 09:59:14;;;;;;;0.40;0.30;;;5.10;99.90;;;;;;5090670;28;20901;-72
2021/12/14 10:02:01;;;;;;;0.47;0.47;;;5.10;99.90;;;;;;5091436;28;20385;-71
2021/12/14 10:04:38;;;;;;;0.40;0.30;;;5.20;99.90;;;;;;5090496;28;20370;-72
2021/12/14 10:07:08;;;;;;;0.40;0.30;;;5.00;99.90;;;;;;5091147;28;20378;-72
2021/12/14 10:09:42;;;;;;;0.40;0.20;;;5.10;99.90;;;;;;5090504;28;20876;-72
2021/12/14 10:13:01;;;;;;;0.50;0.50;;;5.10;99.90;;;;;;5091146;28;20410;-71
2021/12/14 10:15:29;;;;;;;0.40;0.40;;;5.30;99.90;;;;;;5080422;28;20875;-72
2021/12/14 10:17:59;;;;;;;0.40;0.20;;;5.30;99.90;;;;;;5073112;28;20424;-71
2021/12/14 10:20:31;;;;;;;0.50;0.50;;;5.50;99.90;;;;;;5090687;28;20451;-72
2021/12/14 10:22:59;;;;;;;0.40;0.20;;;5.50;99.90;;;;;;5091049;28;20440;-72
2021/12/14 10:25:27;;;;;;;0.40;0.30;;;5.60;99.90;;;;;;5089887;28;20518;-71
2021/12/14 10:27:54;;;;;;;0.50;0.50;;;5.80;99.90;;;;;;5090936;28;20443;-71
2021/12/14 10:30:38;;;;;;;0.40;0.40;;;5.90;99.90;;;;;;5090630;28;20433;-71
2021/12/14 10:33:05;;;;;;;0.70;0.70;;;6.10;99.90;;;;;;5097153;28;20384;-71
2021/12/14 10:35:42;;;;;;;0.50;0.40;;;6.20;99.90;;;;;;5110468;28;20750;-71
2021/12/14 10:38:27;;;;;;;0.40;0.30;;;6.20;99.90;;;;;;5093131;28;20392;-71
2021/12/14 10:43:45;;;;;;;0.40;0.40;;;6.20;99.90;;;;;;5112673;28;20425;-72
2021/12/14 10:46:16;;;;;;;1.40;0.70;;;6.00;99.90;;;;;;5097357;28;20743;-72
2021/12/14 10:48:45;;;;;;;0.40;0.30;;;6.20;99.90;;;;;;5114883;28;20729;-72
2021/12/14 10:51:15;;;;;;;3.10;1.30;;;6.20;99.90;;;;;;5096828;28;20893;-72
2021/12/14 10:53:43;;;;;;;0.60;0.60;;;6.20;99.90;;;;;;5114523;28;20426;-72
2021/12/14 10:56:17;;;;;;;1.58;1.48;;;6.10;99.90;;;;;;5115203;28;20380;-72
2021/12/14 10:58:46;;;;;;;1.10;0.60;;;6.10;99.90;;;;;;5114566;28;20372;-72
2021/12/14 11:01:19;;;;;;;0.40;0.30;;;5.70;99.90;;;;;;5114984;28;20412;-72
2021/12/14 11:03:52;;;;;;;0.40;0.40;;;5.70;99.90;;;;;;5096329;28;20738;-72
2021/12/14 11:06:26;;;;;;;3.20;1.00;;;5.40;99.90;;;;;;5115139;28;20373;-72
2021/12/14 11:09:40;;;;;;;0.40;0.40;;;5.20;99.90;;;;;;5114611;28;20381;-72
2021/12/14 11:11:54;;;;;;;0.40;0.30;;;4.90;99.90;;;;;;5113690;28;20435;-72
2021/12/14 11:14:25;;;;;;;0.40;0.40;;;4.90;99.90;;;;;;5114957;28;20379;-72
2021/12/14 11:19:47;;;;;;;0.40;0.30;;;4.70;99.90;;;;;;5114913;28;20916;-72
2021/12/14 11:22:21;;;;;;;0.40;0.30;;;4.80;99.90;;;;;;5114669;28;20445;-72
2021/12/14 11:24:55;;;;;;;0.70;0.70;;;4.80;99.90;;;;;;5114597;28;20402;-72
2021/12/14 11:27:38;;;;;;;0.60;0.50;;;4.90;99.90;;;;;;5115048;28;20430;-72
2021/12/14 11:30:10;;;;;;;0.70;0.60;;;5.20;99.90;;;;;;5114044;28;20384;-72
2021/12/14 11:32:41;;;;;;;0.80;0.80;;;5.30;99.90;;;;;;5112335;28;20719;-72
2021/12/14 11:35:21;;;;;;;0.40;0.20;;;5.50;99.90;;;;;;5093242;28;20818;-72
2021/12/14 11:37:48;;;;;;;0.45;0.40;;;5.80;99.90;;;;;;5093921;28;20867;-71
2021/12/14 11:40:15;;;;;;;1.52;1.42;;;5.70;99.90;;;;;;5093060;28;20868;-72
2021/12/14 11:42:41;;;;;;;0.70;0.60;;;5.60;99.90;;;;;;5093749;28;20447;-71
2021/12/14 11:45:17;;;;;;;0.40;0.30;;;5.40;99.90;;;;;;5093362;28;20374;-71
2021/12/14 11:47:58;;;;;;;1.10;0.80;;;5.70;99.90;;;;;;5094035;28;20396;-71
2021/12/14 11:50:28;;;;;;;2.20;1.50;;;5.80;99.90;;;;;;5093102;28;20406;-71
2021/12/14 11:53:03;;;;;;;0.40;0.40;;;5.90;99.90;;;;;;5093826;28;20386;-71
2021/12/14 11:55:40;;;;;;;1.00;0.60;;;6.10;99.90;;;;;;5093173;28;20398;-71
2021/12/14 11:58:31;;;;;;;0.90;0.80;;;6.40;99.90;;;;;;5093630;28;20382;-71
2021/12/14 12:01:14;;;;;;;0.40;0.40;;;6.50;99.90;;;;;;5093812;28;20385;-71
2021/12/14 12:03:40;;;;;;;0.40;0.40;;;6.40;99.90;;;;;;5093358;28;20565;-72
2021/12/14 12:09:37;;;;;;;0.50;0.50;;;6.30;99.90;;;;;;5093390;28;20396;-72
2021/12/14 12:12:08;;;;;;;0.80;0.80;;;6.50;99.90;;;;;;5077045;28;20429;-71
2021/12/14 12:14:34;;;;;;;0.40;0.32;;;6.60;99.90;;;;;;5092704;28;20445;-71
2021/12/14 12:17:12;;;;;;;0.50;0.50;;;6.80;99.90;;;;;;5093427;28;20382;-71
2021/12/14 12:19:40;;;;;;;0.80;0.80;;;6.80;99.90;;;;;;5092682;28;20382;-71
2021/12/14 12:22:13;;;;;;;0.70;0.70;;;6.80;99.90;;;;;;5093124;28;20386;-70
2021/12/14 12:24:51;;;;;;;0.40;0.30;;;6.60;99.90;;;;;;5092706;28;20381;-70
2021/12/14 12:27:28;;;;;;;1.90;1.00;;;6.40;99.90;;;;;;5093072;28;20492;-71
2021/12/14 12:30:06;;;;;;;0.60;0.60;;;6.00;99.90;;;;;;5093022;28;20911;-71
2021/12/14 12:32:32;;;;;;;0.40;0.20;;;6.30;99.90;;;;;;5093772;28;20911;-71
2021/12/14 12:34:59;;;;;;;0.50;0.50;;;6.20;99.90;;;;;;5113315;28;20391;-71
2021/12/14 12:37:44;;;;;;;1.40;1.00;;;5.80;99.90;;;;;;5113518;28;20384;-71
2021/12/14 12:40:14;;;;;;;0.60;0.60;;;5.50;99.90;;;;;;5113255;28;20373;-71
2021/12/14 12:42:44;;;;;;;0.40;0.30;;;5.50;99.90;;;;;;5112640;28;20704;-71
2021/12/14 12:45:33;;;;;;;0.40;0.25;;;5.60;99.90;;;;;;5113066;28;20877;-70
2021/12/14 12:48:01;;;;;;;0.60;0.60;;;5.70;99.90;;;;;;5094676;28;20392;-71
2021/12/14 12:50:28;;;;;;;0.40;0.30;;;5.70;99.90;;;;;;5113017;28;20909;-71
2021/12/14 12:52:55;;;;;;;0.40;0.30;;;5.70;99.90;;;;;;5112418;28;20797;-71
2021/12/14 12:55:34;;;;;;;0.50;0.50;;;5.80;99.90;;;;;;5112826;28;20392;-71
2021/12/14 12:58:14;;;;;;;0.57;0.57;;;5.60;99.90;;;;;;5112162;28;20614;-72
2021/12/14 13:00:52;;;;;;;0.50;0.50;;;5.70;99.90;;;;;;5113110;28;20727;-72
2021/12/14 13:03:36;;;;;;;0.40;0.40;;;5.80;99.90;;;;;;5112851;28;20703;-72
2021/12/14 13:06:16;;;;;;;0.50;0.30;;;5.60;99.90;;;;;;5111886;28;20381;-72
2021/12/14 13:08:49;;;;;;;0.40;0.30;;;5.70;99.90;;;;;;5112292;28;20468;-72
2021/12/14 13:11:19;;;;;;;0.40;0.30;;;5.40;99.90;;;;;;5112675;28;20707;-72
2021/12/14 13:13:51;;;;;;;0.90;0.90;;;5.50;99.90;;;;;;5112334;28;20439;-72
2021/12/14 13:16:20;;;;;;;1.00;0.90;;;5.60;99.90;;;;;;5112358;28;20383;-72
2021/12/14 13:18:49;;;;;;;1.10;0.90;;;5.50;99.90;;;;;;5112381;28;20426;-72
2021/12/14 13:21:41;;;;;;;1.60;0.80;;;5.50;99.90;;;;;;5111817;28;20395;-72
2021/12/14 13:24:20;;;;;;;1.30;1.15;;;5.40;99.90;;;;;;5111712;28;20395;-72
2021/12/14 13:27:01;;;;;;;0.90;0.90;;;5.40;99.90;;;;;;5112307;28;20423;-72
2021/12/14 13:29:33;;;;;;;0.90;0.60;;;5.30;99.90;;;;;;5111761;28;20376;-72
2021/12/14 13:32:09;;;;;;;0.40;0.40;;;5.20;99.90;;;;;;5112035;28;20400;-72
2021/12/14 13:34:40;;;;;;;0.70;0.70;;;5.20;99.90;;;;;;5112146;28;20404;-72
2021/12/14 13:37:08;;;;;;;0.50;0.50;;;5.10;99.90;;;;;;5111271;28;20804;-72
2021/12/14 13:39:34;;;;;;;2.97;1.38;;;5.20;99.90;;;;;;5111780;28;20432;-72
2021/12/14 13:42:07;;;;;;;0.40;0.30;;;5.30;99.90;;;;;;5112094;28;20476;-72
2021/12/14 13:44:44;;;;;;;2.40;0.90;;;5.30;99.90;;;;;;5111935;28;20373;-72
2021/12/14 13:47:12;;;;;;;0.40;0.40;;;5.40;99.90;;;;;;5111466;28;20426;-73
2021/12/14 13:49:40;;;;;;;0.80;0.80;;;5.50;99.90;;;;;;5111812;28;20468;-72
2021/12/14 13:52:11;;;;;;;0.90;0.80;;;5.60;99.90;;;;;;5111977;28;20404;-73
2021/12/14 13:55:17;;;;;;;0.63;0.63;;;5.50;99.90;;;;;;5112037;28;20392;-72
2021/12/14 13:57:48;;;;;;;0.75;0.75;;;5.50;99.90;;;;;;5111813;28;20388;-72
2021/12/14 14:00:20;;;;;;;0.40;0.30;;;5.80;99.90;;;;;;5111725;28;20373;-72
2021/12/14 14:02:46;;;;;;;0.52;0.52;;;5.80;99.90;;;;;;5111649;28;20375;-72
2021/12/14 14:05:12;;;;;;;3.80;1.40;;;5.80;99.90;;;;;;5111618;28;20386;-72